sensor_id;sensor_type;location;lat;lon;timestamp;temperature;humidity
1644;DHT22;46825;51.99869940;8.49421771;2022-11-24T00:00:04;7.50;99.90
1644;DHT22;46825;51.99869940;8.49421771;2022-11-24T00:01:11;7.40;99.90
1644;DHT22;46825;51.99869940;8.49421771;2022-11-24T00:02:16;7.40;99.90
1644;DHT22;46825;51.99869940;8.49421771;2022-11-24T00:03:17;7.40;99.90
1644;DHT22;46825;51.99869940;8.49421771;2022-11-24T00:04:18;7.40;99.90
1644;DHT22;46825;51.99869940;8.49421771;2022-11-24T00:05:19;7.40;99.90
1644;DHT22;46825;51.99869940;8.49421771;2022-11-24T00:06:20;7.40;99.90
1644;DHT22;46825;51.99869940;8.49421771;2022-11-24T00:07:21;7.40;99.90
1644;DHT22;46825;51.99869940;8.49421771;2022-11-24T00:08:21;7.40;99.90
1644;DHT22;46825;51.99869940;8.49421771;2022-11-24T00:09:22;7.40;99.90
1644;DHT22;46825;51.99869940;8.49421771;2022-11-24T00:10:23;7.40;99.90
1644;DHT22;46825;51.99869940;8.49421771;2022-11-24T00:11:26;7.50;99.90
1644;DHT22;46825;51.99869940;8.49421771;2022-11-24T00:12:28;7.40;99.90
1644;DHT22;46825;51.99869940;8.49421771;2022-11-24T00:13:29;7.50;99.90
1644;DHT22;46825;51.99869940;8.49421771;2022-11-24T00:14:32;7.40;99.90
1644;DHT22;46825;51.99869940;8.49421771;2022-11-24T00:15:33;7.40;99.90
1644;DHT22;46825;51.99869940;8.49421771;2022-11-24T00:16:35;7.40;99.90
1644;DHT22;46825;51.99869940;8.49421771;2022-11-24T00:17:36;7.40;99.90
1644;DHT22;46825;51.99869940;8.49421771;2022-11-24T00:18:38;7.40;99.90
1644;DHT22;46825;51.99869940;8.49421771;2022-11-24T00:19:40;7.40;99.90
1644;DHT22;46825;51.99869940;8.49421771;2022-11-24T00:20:41;7.40;99.90
1644;DHT22;46825;51.99869940;8.49421771;2022-11-24T00:21:43;7.40;99.90
1644;DHT22;46825;51.99869940;8.49421771;2022-11-24T00:22:43;7.40;99.90
1644;DHT22;46825;51.99869940;8.49421771;2022-11-24T00:23:45;7.40;99.90
1644;DHT22;46825;51.99869940;8.49421771;2022-11-24T00:24:46;7.40;99.90
1644;DHT22;46825;51.99869940;8.49421771;2022-11-24T00:25:47;7.40;99.90
1644;DHT22;46825;51.99869940;8.49421771;2022-11-24T00:26:50;7.30;99.90
1644;DHT22;46825;51.99869940;8.49421771;2022-11-24T00:27:51;7.00;99.90
1644;DHT22;46825;51.99869940;8.49421771;2022-11-24T00:28:57;7.20;99.90
1644;DHT22;46825;51.99869940;8.49421771;2022-11-24T00:30:02;7.20;99.90
1644;DHT22;46825;51.99869940;8.49421771;2022-11-24T00:31:05;7.20;99.90
1644;DHT22;46825;51.99869940;8.49421771;2022-11-24T00:32:13;7.10;99.90
1644;DHT22;46825;51.99869940;8.49421771;2022-11-24T00:33:14;7.00;99.90
1644;DHT22;46825;51.99869940;8.49421771;2022-11-24T00:34:15;7.00;99.90
1644;DHT22;46825;51.99869940;8.49421771;2022-11-24T00:35:16;7.00;99.90
1644;DHT22;46825;51.99869940;8.49421771;2022-11-24T00:36:18;7.00;99.90
1644;DHT22;46825;51.99869940;8.49421771;2022-11-24T00:37:19;7.00;99.90
1644;DHT22;46825;51.99869940;8.49421771;2022-11-24T00:38:20;7.00;99.90
1644;DHT22;46825;51.99869940;8.49421771;2022-11-24T00:39:21;7.00;99.90
1644;DHT22;46825;51.99869940;8.49421771;2022-11-24T00:40:22;7.00;99.90
1644;DHT22;46825;51.99869940;8.49421771;2022-11-24T00:41:24;7.10;99.90
1644;DHT22;46825;51.99869940;8.49421771;2022-11-24T00:42:26;7.00;99.90
1644;DHT22;46825;51.99869940;8.49421771;2022-11-24T00:43:26;7.00;99.90
1644;DHT22;46825;51.99869940;8.49421771;2022-11-24T00:44:27;7.00;99.90
1644;DHT22;46825;51.99869940;8.49421771;2022-11-24T00:45:28;7.00;99.90
1644;DHT22;46825;51.99869940;8.49421771;2022-11-24T00:46:29;7.00;99.90
1644;DHT22;46825;51.99869940;8.49421771;2022-11-24T00:47:30;7.00;99.90
1644;DHT22;46825;51.99869940;8.49421771;2022-11-24T00:48:32;7.00;99.90
1644;DHT22;46825;51.99869940;8.49421771;2022-11-24T00:49:33;7.00;99.90
1644;DHT22;46825;51.99869940;8.49421771;2022-11-24T00:50:35;7.00;99.90
1644;DHT22;46825;51.99869940;8.49421771;2022-11-24T00:51:37;6.90;99.90
1644;DHT22;46825;51.99869940;8.49421771;2022-11-24T00:52:38;7.40;99.90
1644;DHT22;46825;51.99869940;8.49421771;2022-11-24T00:53:42;6.90;99.90
1644;DHT22;46825;51.99869940;8.49421771;2022-11-24T00:54:43;6.90;99.90
1644;DHT22;46825;51.99869940;8.49421771;2022-11-24T00:55:48;6.90;99.90
1644;DHT22;46825;51.99869940;8.49421771;2022-11-24T00:56:49;6.90;99.90
1644;DHT22;46825;51.99869940;8.49421771;2022-11-24T00:57:51;6.90;99.90
1644;DHT22;46825;51.99869940;8.49421771;2022-11-24T00:58:52;6.90;99.90
1644;DHT22;46825;51.99869940;8.49421771;2022-11-24T00:59:53;6.90;99.90
1644;DHT22;46825;51.99869940;8.49421771;2022-11-24T01:00:54;6.80;99.90
1644;DHT22;46825;51.99869940;8.49421771;2022-11-24T01:02:00;6.80;99.90
1644;DHT22;46825;51.99869940;8.49421771;2022-11-24T01:03:02;6.70;99.90
1644;DHT22;46825;51.99869940;8.49421771;2022-11-24T01:04:03;6.70;99.90
1644;DHT22;46825;51.99869940;8.49421771;2022-11-24T01:05:05;6.70;99.90
1644;DHT22;46825;51.99869940;8.49421771;2022-11-24T01:06:08;6.70;99.90
1644;DHT22;46825;51.99869940;8.49421771;2022-11-24T01:07:09;6.70;99.90
1644;DHT22;46825;51.99869940;8.49421771;2022-11-24T01:08:11;5.60;99.90
1644;DHT22;46825;51.99869940;8.49421771;2022-11-24T01:09:12;6.70;99.90
1644;DHT22;46825;51.99869940;8.49421771;2022-11-24T01:10:13;6.70;99.90
1644;DHT22;46825;51.99869940;8.49421771;2022-11-24T01:11:25;6.60;99.90
1644;DHT22;46825;51.99869940;8.49421771;2022-11-24T01:12:27;6.70;99.90
1644;DHT22;46825;51.99869940;8.49421771;2022-11-24T01:13:28;6.70;99.90
1644;DHT22;46825;51.99869940;8.49421771;2022-11-24T01:14:30;6.70;99.90
1644;DHT22;46825;51.99869940;8.49421771;2022-11-24T01:15:34;6.70;99.90
1644;DHT22;46825;51.99869940;8.49421771;2022-11-24T01:16:35;6.70;99.90
1644;DHT22;46825;51.99869940;8.49421771;2022-11-24T01:17:38;7.00;99.90
1644;DHT22;46825;51.99869940;8.49421771;2022-11-24T01:18:39;6.70;99.90
1644;DHT22;46825;51.99869940;8.49421771;2022-11-24T01:19:40;6.60;99.90
1644;DHT22;46825;51.99869940;8.49421771;2022-11-24T01:20:41;6.60;99.90
1644;DHT22;46825;51.99869940;8.49421771;2022-11-24T01:21:42;6.60;99.90
1644;DHT22;46825;51.99869940;8.49421771;2022-11-24T01:22:43;6.60;99.90
1644;DHT22;46825;51.99869940;8.49421771;2022-11-24T01:23:44;6.60;99.90
1644;DHT22;46825;51.99869940;8.49421771;2022-11-24T01:24:45;6.60;99.90
1644;DHT22;46825;51.99869940;8.49421771;2022-11-24T01:25:49;6.60;99.90
1644;DHT22;46825;51.99869940;8.49421771;2022-11-24T01:26:50;6.60;99.90
1644;DHT22;46825;51.99869940;8.49421771;2022-11-24T01:27:51;6.50;99.90
1644;DHT22;46825;51.99869940;8.49421771;2022-11-24T01:28:56;6.50;99.90
1644;DHT22;46825;51.99869940;8.49421771;2022-11-24T01:29:57;6.50;99.90
1644;DHT22;46825;51.99869940;8.49421771;2022-11-24T01:31:00;6.50;99.90
1644;DHT22;46825;51.99869940;8.49421771;2022-11-24T01:32:01;6.40;99.90
1644;DHT22;46825;51.99869940;8.49421771;2022-11-24T01:33:02;6.40;99.90
1644;DHT22;46825;51.99869940;8.49421771;2022-11-24T01:34:03;6.50;99.90
1644;DHT22;46825;51.99869940;8.49421771;2022-11-24T01:35:05;6.50;99.90
1644;DHT22;46825;51.99869940;8.49421771;2022-11-24T01:36:06;6.40;99.90
1644;DHT22;46825;51.99869940;8.49421771;2022-11-24T01:38:09;6.40;99.90
1644;DHT22;46825;51.99869940;8.49421771;2022-11-24T01:39:09;6.40;99.90
1644;DHT22;46825;51.99869940;8.49421771;2022-11-24T01:40:10;6.40;99.90
1644;DHT22;46825;51.99869940;8.49421771;2022-11-24T01:41:18;6.40;99.90
1644;DHT22;46825;51.99869940;8.49421771;2022-11-24T01:42:20;6.50;99.90
1644;DHT22;46825;51.99869940;8.49421771;2022-11-24T01:43:21;6.40;99.90
1644;DHT22;46825;51.99869940;8.49421771;2022-11-24T01:44:28;6.50;99.90
1644;DHT22;46825;51.99869940;8.49421771;2022-11-24T01:45:37;6.40;99.90
1644;DHT22;46825;51.99869940;8.49421771;2022-11-24T01:46:46;6.40;99.90
1644;DHT22;46825;51.99869940;8.49421771;2022-11-24T01:47:48;6.40;99.90
1644;DHT22;46825;51.99869940;8.49421771;2022-11-24T01:49:13;6.40;99.90
1644;DHT22;46825;51.99869940;8.49421771;2022-11-24T01:50:17;6.40;99.90
1644;DHT22;46825;51.99869940;8.49421771;2022-11-24T01:51:24;6.40;99.90
1644;DHT22;46825;51.99869940;8.49421771;2022-11-24T01:52:39;6.40;99.90
1644;DHT22;46825;51.99869940;8.49421771;2022-11-24T01:53:44;6.40;99.90
1644;DHT22;46825;51.99869940;8.49421771;2022-11-24T01:54:55;6.50;99.90
1644;DHT22;46825;51.99869940;8.49421771;2022-11-24T01:55:57;6.40;99.90
1644;DHT22;46825;51.99869940;8.49421771;2022-11-24T01:57:06;6.50;99.90
1644;DHT22;46825;51.99869940;8.49421771;2022-11-24T01:58:14;6.40;99.90
1644;DHT22;46825;51.99869940;8.49421771;2022-11-24T01:59:19;6.40;99.90
1644;DHT22;46825;51.99869940;8.49421771;2022-11-24T02:00:21;6.40;99.90
1644;DHT22;46825;51.99869940;8.49421771;2022-11-24T02:01:23;6.40;99.90
1644;DHT22;46825;51.99869940;8.49421771;2022-11-24T02:02:27;6.40;99.90
1644;DHT22;46825;51.99869940;8.49421771;2022-11-24T02:03:33;6.40;99.90
1644;DHT22;46825;51.99869940;8.49421771;2022-11-24T02:04:36;6.40;99.90
1644;DHT22;46825;51.99869940;8.49421771;2022-11-24T02:05:52;6.30;99.90
1644;DHT22;46825;51.99869940;8.49421771;2022-11-24T02:06:57;6.30;99.90
1644;DHT22;46825;51.99869940;8.49421771;2022-11-24T02:08:00;6.40;99.90
1644;DHT22;46825;51.99869940;8.49421771;2022-11-24T02:09:23;6.30;99.90
1644;DHT22;46825;51.99869940;8.49421771;2022-11-24T02:10:26;6.30;99.90
1644;DHT22;46825;51.99869940;8.49421771;2022-11-24T02:11:29;6.30;99.90
1644;DHT22;46825;51.99869940;8.49421771;2022-11-24T02:12:33;6.30;99.90
1644;DHT22;46825;51.99869940;8.49421771;2022-11-24T02:13:36;6.20;99.90
1644;DHT22;46825;51.99869940;8.49421771;2022-11-24T02:14:39;6.20;99.90
1644;DHT22;46825;51.99869940;8.49421771;2022-11-24T02:15:41;6.20;99.90
1644;DHT22;46825;51.99869940;8.49421771;2022-11-24T02:16:47;6.20;99.90
1644;DHT22;46825;51.99869940;8.49421771;2022-11-24T02:17:49;6.20;99.90
1644;DHT22;46825;51.99869940;8.49421771;2022-11-24T02:18:50;6.10;99.90
1644;DHT22;46825;51.99869940;8.49421771;2022-11-24T02:20:03;6.10;99.90
1644;DHT22;46825;51.99869940;8.49421771;2022-11-24T02:21:05;6.10;99.90
1644;DHT22;46825;51.99869940;8.49421771;2022-11-24T02:22:16;6.10;99.90
1644;DHT22;46825;51.99869940;8.49421771;2022-11-24T02:27:25;6.20;99.90
1644;DHT22;46825;51.99869940;8.49421771;2022-11-24T02:28:28;6.20;99.90
1644;DHT22;46825;51.99869940;8.49421771;2022-11-24T02:29:30;6.40;99.90
1644;DHT22;46825;51.99869940;8.49421771;2022-11-24T02:30:31;6.20;99.90
1644;DHT22;46825;51.99869940;8.49421771;2022-11-24T02:31:33;6.20;99.90
1644;DHT22;46825;51.99869940;8.49421771;2022-11-24T02:32:34;6.20;99.90
1644;DHT22;46825;51.99869940;8.49421771;2022-11-24T02:33:38;6.10;99.90
1644;DHT22;46825;51.99869940;8.49421771;2022-11-24T02:34:40;6.10;99.90
1644;DHT22;46825;51.99869940;8.49421771;2022-11-24T02:36:45;6.10;99.90
1644;DHT22;46825;51.99869940;8.49421771;2022-11-24T02:37:47;6.10;99.90
1644;DHT22;46825;51.99869940;8.49421771;2022-11-24T02:38:48;6.10;99.90
1644;DHT22;46825;51.99869940;8.49421771;2022-11-24T02:39:49;6.10;99.90
1644;DHT22;46825;51.99869940;8.49421771;2022-11-24T02:40:50;6.10;99.90
1644;DHT22;46825;51.99869940;8.49421771;2022-11-24T02:41:57;6.10;99.90
1644;DHT22;46825;51.99869940;8.49421771;2022-11-24T02:43:06;6.10;99.90
1644;DHT22;46825;51.99869940;8.49421771;2022-11-24T02:44:09;6.10;99.90
1644;DHT22;46825;51.99869940;8.49421771;2022-11-24T02:45:11;6.10;99.90
1644;DHT22;46825;51.99869940;8.49421771;2022-11-24T02:46:14;6.20;99.90
1644;DHT22;46825;51.99869940;8.49421771;2022-11-24T02:47:15;6.00;99.90
1644;DHT22;46825;51.99869940;8.49421771;2022-11-24T02:48:16;6.10;99.90
1644;DHT22;46825;51.99869940;8.49421771;2022-11-24T02:49:18;6.00;99.90
1644;DHT22;46825;51.99869940;8.49421771;2022-11-24T02:50:19;6.10;99.90
1644;DHT22;46825;51.99869940;8.49421771;2022-11-24T02:51:20;6.00;99.90
1644;DHT22;46825;51.99869940;8.49421771;2022-11-24T02:52:21;6.00;99.90
1644;DHT22;46825;51.99869940;8.49421771;2022-11-24T02:53:22;6.00;99.90
1644;DHT22;46825;51.99869940;8.49421771;2022-11-24T02:54:23;6.00;99.90
1644;DHT22;46825;51.99869940;8.49421771;2022-11-24T02:55:24;6.00;99.90
1644;DHT22;46825;51.99869940;8.49421771;2022-11-24T02:56:26;5.80;99.90
1644;DHT22;46825;51.99869940;8.49421771;2022-11-24T02:57:30;6.00;99.90
1644;DHT22;46825;51.99869940;8.49421771;2022-11-24T02:58:31;9.00;99.90
1644;DHT22;46825;51.99869940;8.49421771;2022-11-24T02:59:32;6.00;99.90
1644;DHT22;46825;51.99869940;8.49421771;2022-11-24T03:01:35;6.10;99.90
1644;DHT22;46825;51.99869940;8.49421771;2022-11-24T03:02:35;6.20;99.90
1644;DHT22;46825;51.99869940;8.49421771;2022-11-24T03:03:36;6.10;99.90
1644;DHT22;46825;51.99869940;8.49421771;2022-11-24T03:04:38;6.10;99.90
1644;DHT22;46825;51.99869940;8.49421771;2022-11-24T03:05:39;6.10;99.90
1644;DHT22;46825;51.99869940;8.49421771;2022-11-24T03:06:39;6.10;99.90
1644;DHT22;46825;51.99869940;8.49421771;2022-11-24T03:07:43;6.10;99.90
1644;DHT22;46825;51.99869940;8.49421771;2022-11-24T03:08:44;6.10;99.90
1644;DHT22;46825;51.99869940;8.49421771;2022-11-24T03:09:45;6.10;99.90
1644;DHT22;46825;51.99869940;8.49421771;2022-11-24T03:10:47;6.10;99.90
1644;DHT22;46825;51.99869940;8.49421771;2022-11-24T03:11:48;6.10;99.90
1644;DHT22;46825;51.99869940;8.49421771;2022-11-24T03:12:50;6.10;99.90
1644;DHT22;46825;51.99869940;8.49421771;2022-11-24T03:13:51;6.20;99.90
1644;DHT22;46825;51.99869940;8.49421771;2022-11-24T03:14:52;6.20;99.90
1644;DHT22;46825;51.99869940;8.49421771;2022-11-24T03:15:53;6.20;99.90
1644;DHT22;46825;51.99869940;8.49421771;2022-11-24T03:16:54;6.30;99.90
1644;DHT22;46825;51.99869940;8.49421771;2022-11-24T03:17:55;6.20;99.90
1644;DHT22;46825;51.99869940;8.49421771;2022-11-24T03:18:57;6.20;99.90
1644;DHT22;46825;51.99869940;8.49421771;2022-11-24T03:19:58;6.20;99.90
1644;DHT22;46825;51.99869940;8.49421771;2022-11-24T03:21:01;6.20;99.90
1644;DHT22;46825;51.99869940;8.49421771;2022-11-24T03:22:02;6.20;99.90
1644;DHT22;46825;51.99869940;8.49421771;2022-11-24T03:23:04;6.20;99.90
1644;DHT22;46825;51.99869940;8.49421771;2022-11-24T03:24:05;6.20;99.90
1644;DHT22;46825;51.99869940;8.49421771;2022-11-24T03:25:06;6.10;99.90
1644;DHT22;46825;51.99869940;8.49421771;2022-11-24T03:26:09;6.10;99.90
1644;DHT22;46825;51.99869940;8.49421771;2022-11-24T03:27:12;6.10;99.90
1644;DHT22;46825;51.99869940;8.49421771;2022-11-24T03:28:13;6.00;99.90
1644;DHT22;46825;51.99869940;8.49421771;2022-11-24T03:29:14;6.00;99.90
1644;DHT22;46825;51.99869940;8.49421771;2022-11-24T03:30:15;5.90;99.90
1644;DHT22;46825;51.99869940;8.49421771;2022-11-24T03:31:16;6.00;99.90
1644;DHT22;46825;51.99869940;8.49421771;2022-11-24T03:32:17;6.00;99.90
1644;DHT22;46825;51.99869940;8.49421771;2022-11-24T03:33:17;5.90;99.90
1644;DHT22;46825;51.99869940;8.49421771;2022-11-24T03:34:18;6.00;99.90
1644;DHT22;46825;51.99869940;8.49421771;2022-11-24T03:35:20;4.50;99.90
1644;DHT22;46825;51.99869940;8.49421771;2022-11-24T03:36:21;5.80;99.90
1644;DHT22;46825;51.99869940;8.49421771;2022-11-24T03:37:22;6.10;99.90
1644;DHT22;46825;51.99869940;8.49421771;2022-11-24T03:38:23;6.00;99.90
1644;DHT22;46825;51.99869940;8.49421771;2022-11-24T03:39:24;6.70;99.90
1644;DHT22;46825;51.99869940;8.49421771;2022-11-24T03:40:25;6.20;99.90
1644;DHT22;46825;51.99869940;8.49421771;2022-11-24T03:41:26;6.20;99.90
1644;DHT22;46825;51.99869940;8.49421771;2022-11-24T03:42:27;6.20;99.90
1644;DHT22;46825;51.99869940;8.49421771;2022-11-24T03:43:28;6.20;99.90
1644;DHT22;46825;51.99869940;8.49421771;2022-11-24T03:44:28;6.20;99.90
1644;DHT22;46825;51.99869940;8.49421771;2022-11-24T03:45:29;6.20;99.90
1644;DHT22;46825;51.99869940;8.49421771;2022-11-24T03:46:30;6.20;99.90
1644;DHT22;46825;51.99869940;8.49421771;2022-11-24T03:47:34;6.30;99.90
1644;DHT22;46825;51.99869940;8.49421771;2022-11-24T03:48:35;6.20;99.90
1644;DHT22;46825;51.99869940;8.49421771;2022-11-24T03:49:36;6.30;99.90
1644;DHT22;46825;51.99869940;8.49421771;2022-11-24T03:50:37;6.30;99.90
1644;DHT22;46825;51.99869940;8.49421771;2022-11-24T03:51:38;6.30;99.90
1644;DHT22;46825;51.99869940;8.49421771;2022-11-24T03:52:39;6.30;99.90
1644;DHT22;46825;51.99869940;8.49421771;2022-11-24T03:53:40;6.40;99.90
1644;DHT22;46825;51.99869940;8.49421771;2022-11-24T03:54:41;6.40;99.90
1644;DHT22;46825;51.99869940;8.49421771;2022-11-24T03:55:42;6.40;99.90
1644;DHT22;46825;51.99869940;8.49421771;2022-11-24T03:56:43;6.50;99.90
1644;DHT22;46825;51.99869940;8.49421771;2022-11-24T03:57:44;6.50;99.90
1644;DHT22;46825;51.99869940;8.49421771;2022-11-24T03:58:45;6.50;99.90
1644;DHT22;46825;51.99869940;8.49421771;2022-11-24T03:59:46;6.50;99.90
1644;DHT22;46825;51.99869940;8.49421771;2022-11-24T04:00:48;6.50;99.90
1644;DHT22;46825;51.99869940;8.49421771;2022-11-24T04:01:49;6.50;99.90
1644;DHT22;46825;51.99869940;8.49421771;2022-11-24T04:02:50;6.50;99.90
1644;DHT22;46825;51.99869940;8.49421771;2022-11-24T04:03:51;6.50;99.90
1644;DHT22;46825;51.99869940;8.49421771;2022-11-24T04:04:52;6.60;99.90
1644;DHT22;46825;51.99869940;8.49421771;2022-11-24T04:05:53;6.60;99.90
1644;DHT22;46825;51.99869940;8.49421771;2022-11-24T04:06:54;6.50;99.90
1644;DHT22;46825;51.99869940;8.49421771;2022-11-24T04:07:55;6.50;99.90
1644;DHT22;46825;51.99869940;8.49421771;2022-11-24T04:09:03;6.60;99.90
1644;DHT22;46825;51.99869940;8.49421771;2022-11-24T04:10:07;6.60;99.90
1644;DHT22;46825;51.99869940;8.49421771;2022-11-24T04:11:09;6.60;99.90
1644;DHT22;46825;51.99869940;8.49421771;2022-11-24T04:12:29;6.70;99.90
1644;DHT22;46825;51.99869940;8.49421771;2022-11-24T04:13:46;6.80;99.90
1644;DHT22;46825;51.99869940;8.49421771;2022-11-24T04:14:47;6.70;99.90
1644;DHT22;46825;51.99869940;8.49421771;2022-11-24T04:15:48;6.70;99.90
1644;DHT22;46825;51.99869940;8.49421771;2022-11-24T04:16:52;6.70;99.90
1644;DHT22;46825;51.99869940;8.49421771;2022-11-24T04:17:56;6.70;99.90
1644;DHT22;46825;51.99869940;8.49421771;2022-11-24T04:19:00;6.70;99.90
1644;DHT22;46825;51.99869940;8.49421771;2022-11-24T04:20:01;6.70;99.90
1644;DHT22;46825;51.99869940;8.49421771;2022-11-24T04:21:02;6.60;99.90
1644;DHT22;46825;51.99869940;8.49421771;2022-11-24T04:22:02;6.60;99.90
1644;DHT22;46825;51.99869940;8.49421771;2022-11-24T04:23:03;6.60;99.90
1644;DHT22;46825;51.99869940;8.49421771;2022-11-24T04:24:04;6.60;99.90
1644;DHT22;46825;51.99869940;8.49421771;2022-11-24T04:25:06;6.60;99.90
1644;DHT22;46825;51.99869940;8.49421771;2022-11-24T04:26:07;6.60;99.90
1644;DHT22;46825;51.99869940;8.49421771;2022-11-24T04:27:08;6.70;99.90
1644;DHT22;46825;51.99869940;8.49421771;2022-11-24T04:28:09;6.70;99.90
1644;DHT22;46825;51.99869940;8.49421771;2022-11-24T04:29:10;6.60;99.90
1644;DHT22;46825;51.99869940;8.49421771;2022-11-24T04:30:11;6.70;99.90
1644;DHT22;46825;51.99869940;8.49421771;2022-11-24T04:31:12;6.70;99.90
1644;DHT22;46825;51.99869940;8.49421771;2022-11-24T04:32:13;6.60;99.90
1644;DHT22;46825;51.99869940;8.49421771;2022-11-24T04:33:14;6.60;99.90
1644;DHT22;46825;51.99869940;8.49421771;2022-11-24T04:34:15;6.60;99.90
1644;DHT22;46825;51.99869940;8.49421771;2022-11-24T04:35:16;6.60;99.90
1644;DHT22;46825;51.99869940;8.49421771;2022-11-24T04:36:17;6.60;99.90
1644;DHT22;46825;51.99869940;8.49421771;2022-11-24T04:37:18;6.60;99.90
1644;DHT22;46825;51.99869940;8.49421771;2022-11-24T04:38:19;6.60;99.90
1644;DHT22;46825;51.99869940;8.49421771;2022-11-24T04:39:19;6.60;99.90
1644;DHT22;46825;51.99869940;8.49421771;2022-11-24T04:40:23;6.40;99.90
1644;DHT22;46825;51.99869940;8.49421771;2022-11-24T04:41:24;6.60;99.90
1644;DHT22;46825;51.99869940;8.49421771;2022-11-24T04:42:25;6.60;99.90
1644;DHT22;46825;51.99869940;8.49421771;2022-11-24T04:43:26;6.60;99.90
1644;DHT22;46825;51.99869940;8.49421771;2022-11-24T04:44:27;6.60;99.90
1644;DHT22;46825;51.99869940;8.49421771;2022-11-24T04:45:28;6.60;99.90
1644;DHT22;46825;51.99869940;8.49421771;2022-11-24T04:46:29;6.60;99.90
1644;DHT22;46825;51.99869940;8.49421771;2022-11-24T04:47:30;6.60;99.90
1644;DHT22;46825;51.99869940;8.49421771;2022-11-24T04:48:31;6.50;99.90
1644;DHT22;46825;51.99869940;8.49421771;2022-11-24T04:49:32;6.50;99.90
1644;DHT22;46825;51.99869940;8.49421771;2022-11-24T04:50:33;6.50;99.90
1644;DHT22;46825;51.99869940;8.49421771;2022-11-24T04:51:35;6.50;99.90
1644;DHT22;46825;51.99869940;8.49421771;2022-11-24T04:52:36;6.60;99.90
1644;DHT22;46825;51.99869940;8.49421771;2022-11-24T04:53:37;6.60;99.90
1644;DHT22;46825;51.99869940;8.49421771;2022-11-24T04:54:38;6.60;99.90
1644;DHT22;46825;51.99869940;8.49421771;2022-11-24T04:55:40;6.70;99.90
1644;DHT22;46825;51.99869940;8.49421771;2022-11-24T04:56:41;6.70;99.90
1644;DHT22;46825;51.99869940;8.49421771;2022-11-24T04:57:43;6.70;99.90
1644;DHT22;46825;51.99869940;8.49421771;2022-11-24T04:58:47;6.70;99.90
1644;DHT22;46825;51.99869940;8.49421771;2022-11-24T04:59:49;6.80;99.90
1644;DHT22;46825;51.99869940;8.49421771;2022-11-24T05:00:51;6.70;99.90
1644;DHT22;46825;51.99869940;8.49421771;2022-11-24T05:01:52;6.70;99.90
1644;DHT22;46825;51.99869940;8.49421771;2022-11-24T05:02:53;6.70;99.90
1644;DHT22;46825;51.99869940;8.49421771;2022-11-24T05:03:54;6.70;99.90
1644;DHT22;46825;51.99869940;8.49421771;2022-11-24T05:04:58;6.60;99.90
1644;DHT22;46825;51.99869940;8.49421771;2022-11-24T05:06:00;6.60;99.90
1644;DHT22;46825;51.99869940;8.49421771;2022-11-24T05:07:03;6.60;99.90
1644;DHT22;46825;51.99869940;8.49421771;2022-11-24T05:08:04;6.60;99.90
1644;DHT22;46825;51.99869940;8.49421771;2022-11-24T05:09:06;6.50;99.90
1644;DHT22;46825;51.99869940;8.49421771;2022-11-24T05:10:07;6.50;99.90
1644;DHT22;46825;51.99869940;8.49421771;2022-11-24T05:11:27;6.50;99.90
1644;DHT22;46825;51.99869940;8.49421771;2022-11-24T05:12:28;7.80;99.90
1644;DHT22;46825;51.99869940;8.49421771;2022-11-24T05:13:31;6.50;99.90
1644;DHT22;46825;51.99869940;8.49421771;2022-11-24T05:14:32;6.50;99.90
1644;DHT22;46825;51.99869940;8.49421771;2022-11-24T05:15:33;6.50;99.90
1644;DHT22;46825;51.99869940;8.49421771;2022-11-24T05:16:35;6.50;99.90
1644;DHT22;46825;51.99869940;8.49421771;2022-11-24T05:17:38;6.90;99.90
1644;DHT22;46825;51.99869940;8.49421771;2022-11-24T05:18:39;6.50;99.90
1644;DHT22;46825;51.99869940;8.49421771;2022-11-24T05:19:40;6.50;99.90
1644;DHT22;46825;51.99869940;8.49421771;2022-11-24T05:20:41;6.40;99.90
1644;DHT22;46825;51.99869940;8.49421771;2022-11-24T05:21:44;6.40;99.90
1644;DHT22;46825;51.99869940;8.49421771;2022-11-24T05:22:45;6.40;99.90
1644;DHT22;46825;51.99869940;8.49421771;2022-11-24T05:23:46;6.50;99.90
1644;DHT22;46825;51.99869940;8.49421771;2022-11-24T05:24:47;6.50;99.90
1644;DHT22;46825;51.99869940;8.49421771;2022-11-24T05:25:49;6.50;99.90
1644;DHT22;46825;51.99869940;8.49421771;2022-11-24T05:26:50;6.50;99.90
1644;DHT22;46825;51.99869940;8.49421771;2022-11-24T05:27:51;6.60;99.90
1644;DHT22;46825;51.99869940;8.49421771;2022-11-24T05:28:52;6.70;99.90
1644;DHT22;46825;51.99869940;8.49421771;2022-11-24T05:29:53;6.60;99.90
1644;DHT22;46825;51.99869940;8.49421771;2022-11-24T05:31:01;6.70;99.90
1644;DHT22;46825;51.99869940;8.49421771;2022-11-24T05:32:02;6.70;99.90
1644;DHT22;46825;51.99869940;8.49421771;2022-11-24T05:33:14;6.80;99.90
1644;DHT22;46825;51.99869940;8.49421771;2022-11-24T05:34:18;6.80;99.90
1644;DHT22;46825;51.99869940;8.49421771;2022-11-24T05:35:20;6.80;99.90
1644;DHT22;46825;51.99869940;8.49421771;2022-11-24T05:36:21;7.70;99.90
1644;DHT22;46825;51.99869940;8.49421771;2022-11-24T05:37:40;6.80;99.90
1644;DHT22;46825;51.99869940;8.49421771;2022-11-24T05:38:41;6.90;99.90
1644;DHT22;46825;51.99869940;8.49421771;2022-11-24T05:39:41;6.90;99.90
1644;DHT22;46825;51.99869940;8.49421771;2022-11-24T05:40:43;6.90;99.90
1644;DHT22;46825;51.99869940;8.49421771;2022-11-24T05:41:44;6.90;99.90
1644;DHT22;46825;51.99869940;8.49421771;2022-11-24T05:42:45;7.00;99.90
1644;DHT22;46825;51.99869940;8.49421771;2022-11-24T05:43:46;7.00;99.90
1644;DHT22;46825;51.99869940;8.49421771;2022-11-24T05:44:47;7.00;99.90
1644;DHT22;46825;51.99869940;8.49421771;2022-11-24T05:45:49;6.90;99.90
1644;DHT22;46825;51.99869940;8.49421771;2022-11-24T05:46:50;6.90;99.90
1644;DHT22;46825;51.99869940;8.49421771;2022-11-24T05:47:51;7.00;99.90
1644;DHT22;46825;51.99869940;8.49421771;2022-11-24T05:48:52;7.00;99.90
1644;DHT22;46825;51.99869940;8.49421771;2022-11-24T05:49:53;7.30;99.90
1644;DHT22;46825;51.99869940;8.49421771;2022-11-24T05:50:55;7.50;99.90
1644;DHT22;46825;51.99869940;8.49421771;2022-11-24T05:51:57;7.00;99.90
1644;DHT22;46825;51.99869940;8.49421771;2022-11-24T05:53:10;7.00;99.90
1644;DHT22;46825;51.99869940;8.49421771;2022-11-24T05:55:14;7.00;99.90
1644;DHT22;46825;51.99869940;8.49421771;2022-11-24T05:56:15;7.00;99.90
1644;DHT22;46825;51.99869940;8.49421771;2022-11-24T05:57:17;7.00;99.90
1644;DHT22;46825;51.99869940;8.49421771;2022-11-24T05:58:18;7.00;99.90